createdAt,value
2023-01-22T00:27:10.586Z,0.50
2023-01-22T00:46:47.563Z,0.50
2023-01-22T00:49:14.364Z,0.50
2023-01-22T00:51:41.030Z,0.50
2023-01-22T00:56:36.642Z,0.50
2023-01-22T00:59:09.983Z,0.40
2023-01-22T01:04:05.532Z,0.40
2023-01-22T01:08:59.374Z,0.50
2023-01-22T01:13:53.801Z,0.40
2023-01-22T01:18:50.927Z,0.50
2023-01-22T01:26:15.224Z,0.60
2023-01-22T01:41:02.223Z,0.60
2023-01-22T01:48:34.256Z,0.60
2023-01-22T01:53:33.049Z,0.70
2023-01-22T02:03:28.853Z,0.70
2023-01-22T02:05:55.675Z,0.70
2023-01-22T02:23:08.781Z,0.80
2023-01-22T02:25:35.541Z,0.80
2023-01-22T02:28:02.566Z,0.80
2023-01-22T02:35:23.720Z,0.80
2023-01-22T02:37:50.347Z,0.80
2023-01-22T02:40:17.431Z,0.70
2023-01-22T02:42:44.356Z,0.80
2023-01-22T02:47:38.447Z,0.90
2023-01-22T02:57:30.844Z,0.80
2023-01-22T03:02:26.087Z,0.90
2023-01-22T03:05:03.151Z,0.90
2023-01-22T03:07:41.933Z,0.90
2023-01-22T03:10:13.139Z,0.90
2023-01-22T03:12:59.925Z,0.80
2023-01-22T03:18:34.475Z,0.80
2023-01-22T03:21:16.714Z,0.70
2023-01-22T03:28:40.048Z,0.90
2023-01-22T03:33:34.626Z,0.70
2023-01-22T03:48:29.698Z,0.90
2023-01-22T03:53:23.696Z,0.90
2023-01-22T03:58:25.610Z,0.90
2023-01-22T04:08:22.080Z,0.80
2023-01-22T04:15:44.999Z,0.90
2023-01-22T04:18:12.036Z,0.90
2023-01-22T04:20:39.899Z,0.60
2023-01-22T04:28:01.788Z,0.60
2023-01-22T04:30:28.547Z,0.50
2023-01-22T04:45:11.773Z,0.60
2023-01-22T04:47:43.170Z,0.60
2023-01-22T04:57:35.333Z,0.50
2023-01-22T05:00:02.295Z,0.40
2023-01-22T05:02:29.002Z,0.30
2023-01-22T05:07:22.989Z,0.30
2023-01-22T05:14:43.882Z,0.40
2023-01-22T05:17:10.643Z,0.40
2023-01-22T05:19:37.619Z,0.40
2023-01-22T05:26:58.979Z,0.50
2023-01-22T05:29:27.085Z,0.40
2023-01-22T05:34:21.644Z,0.50
2023-01-22T05:36:48.675Z,0.60
2023-01-22T05:39:16.700Z,0.50
2023-01-22T05:41:43.661Z,0.40
2023-01-22T05:49:06.508Z,0.50
2023-01-22T05:51:33.893Z,0.40
2023-01-22T05:56:27.918Z,0.40
2023-01-22T05:58:54.676Z,0.50
2023-01-22T06:06:15.975Z,0.50
2023-01-22T06:08:42.672Z,0.50
2023-01-22T06:11:14.738Z,0.40
2023-01-22T06:13:41.655Z,0.30
2023-01-22T06:18:36.084Z,0.30
2023-01-22T06:23:31.258Z,0.40
2023-01-22T06:25:59.727Z,0.50
2023-01-22T06:28:26.475Z,0.50
2023-01-22T06:30:57.478Z,0.40
2023-01-22T06:38:23.607Z,0.60
2023-01-22T06:40:59.339Z,0.40
2023-01-22T06:43:27.793Z,0.40
2023-01-22T06:48:22.114Z,0.50
2023-01-22T06:50:49.122Z,0.40
2023-01-22T06:58:10.038Z,0.60
2023-01-22T07:00:36.695Z,0.50
2023-01-22T07:03:06.766Z,0.50
2023-01-22T07:05:34.308Z,0.60
2023-01-22T07:08:01.828Z,0.60
2023-01-22T07:10:28.634Z,0.60
2023-01-22T07:12:58.441Z,0.50
2023-01-22T07:15:26.156Z,0.60
2023-01-22T07:17:53.845Z,0.60
2023-01-22T07:22:48.668Z,0.60
2023-01-22T07:27:43.943Z,0.60
2023-01-22T07:30:11.174Z,0.60
2023-01-22T07:32:37.882Z,0.60
2023-01-22T07:39:59.420Z,0.70
2023-01-22T07:44:53.247Z,0.90
2023-01-22T07:47:20.041Z,1.00
2023-01-22T07:52:13.890Z,1.00
2023-01-22T07:57:07.760Z,1.10
2023-01-22T07:59:35.238Z,1.10
2023-01-22T08:02:03.579Z,1.10
2023-01-22T08:06:57.608Z,1.20
2023-01-22T08:09:25.647Z,1.20
2023-01-22T08:16:47.704Z,1.30
2023-01-22T08:21:41.702Z,1.20
2023-01-22T08:24:10.190Z,1.20
2023-01-22T08:26:37.610Z,1.30
2023-01-22T08:29:07.432Z,1.30
2023-01-22T08:31:34.783Z,1.30
2023-01-22T08:34:01.878Z,1.30
2023-01-22T08:36:28.650Z,1.60
2023-01-22T08:38:55.435Z,1.60
2023-01-22T08:41:22.559Z,1.60
2023-01-22T08:43:50.680Z,1.60
2023-01-22T08:46:17.361Z,1.70
2023-01-22T08:48:44.307Z,1.70
2023-01-22T08:51:12.488Z,1.70
2023-01-22T08:53:39.188Z,1.70
2023-01-22T08:56:06.653Z,1.70
2023-01-22T08:58:33.383Z,1.70
2023-01-22T09:01:00.124Z,1.80
2023-01-22T09:03:26.888Z,1.70
2023-01-22T09:05:53.723Z,1.70
2023-01-22T09:08:21.715Z,1.60
2023-01-22T09:10:48.400Z,1.60
2023-01-22T09:13:15.172Z,1.70
2023-01-22T09:15:41.833Z,1.70
2023-01-22T09:18:08.502Z,1.70
2023-01-22T09:20:35.232Z,1.80
2023-01-22T09:23:01.926Z,2.20
2023-01-22T09:25:29.271Z,1.90
2023-01-22T09:27:59.983Z,2.00
2023-01-22T09:30:30.071Z,2.10
2023-01-22T09:32:57.068Z,2.10
2023-01-22T09:35:23.906Z,2.20
2023-01-22T09:37:50.542Z,2.20
2023-01-22T09:40:25.869Z,2.30
2023-01-22T09:42:58.950Z,2.30
2023-01-22T09:45:27.372Z,2.30
2023-01-22T09:47:59.662Z,2.40
2023-01-22T09:50:32.093Z,2.40
2023-01-22T09:53:03.521Z,2.40
2023-01-22T09:55:40.589Z,2.40
2023-01-22T09:58:14.522Z,2.50
2023-01-22T10:00:50.682Z,2.50
2023-01-22T10:03:23.639Z,2.50
2023-01-22T10:05:57.855Z,2.50
2023-01-22T10:08:38.072Z,2.40
2023-01-22T10:11:07.684Z,2.40
2023-01-22T10:13:37.955Z,2.40
2023-01-22T10:16:05.548Z,2.40
2023-01-22T10:18:56.909Z,2.50
2023-01-22T10:21:28.670Z,2.50
2023-01-22T10:23:58.030Z,2.50
2023-01-22T10:26:28.993Z,2.60
2023-01-22T10:28:58.374Z,2.60
2023-01-22T10:31:31.029Z,2.70
2023-01-22T10:34:00.679Z,2.80
2023-01-22T10:36:29.174Z,2.10
2023-01-22T10:39:13.663Z,2.90
2023-01-22T10:41:45.539Z,3.20
2023-01-22T10:44:22.925Z,3.00
2023-01-22T10:46:50.912Z,3.10
2023-01-22T10:49:21.752Z,3.20
2023-01-22T10:51:57.943Z,3.20
2023-01-22T10:54:32.823Z,3.30
2023-01-22T10:57:27.302Z,3.30
2023-01-22T11:00:14.085Z,3.30
2023-01-22T11:02:46.479Z,3.40
2023-01-22T11:05:24.267Z,3.40
2023-01-22T11:07:54.488Z,3.50
2023-01-22T11:10:30.376Z,3.60
2023-01-22T11:13:05.989Z,3.50
2023-01-22T11:15:53.876Z,3.50
2023-01-22T11:18:32.037Z,3.50
2023-01-22T11:21:00.870Z,3.50
2023-01-22T11:23:35.848Z,3.50
2023-01-22T11:26:30.822Z,3.60
2023-01-22T11:29:08.129Z,3.60
2023-01-22T11:31:39.396Z,3.60
2023-01-22T11:34:38.081Z,3.50
2023-01-22T11:37:05.741Z,3.50
2023-01-22T11:40:12.253Z,3.50
2023-01-22T11:43:02.175Z,3.40
2023-01-22T11:45:50.523Z,3.50
2023-01-22T11:48:57.080Z,3.50
2023-01-22T11:51:26.752Z,3.60
2023-01-22T11:54:20.897Z,3.80
2023-01-22T11:56:56.994Z,3.90
2023-01-22T12:00:04.723Z,3.90
2023-01-22T12:03:01.117Z,3.80
2023-01-22T12:05:47.756Z,3.90
2023-01-22T12:08:24.934Z,4.00
2023-01-22T12:11:16.539Z,4.00
2023-01-22T12:14:23.085Z,3.90
2023-01-22T12:17:18.167Z,4.20
2023-01-22T12:20:00.627Z,3.70
2023-01-22T12:22:47.300Z,3.70
2023-01-22T12:25:34.063Z,3.70
2023-01-22T12:28:25.343Z,3.60
2023-01-22T12:31:02.767Z,3.50
2023-01-22T12:33:34.813Z,3.50
2023-01-22T12:36:03.898Z,3.40
2023-01-22T12:38:31.677Z,3.40
2023-01-22T12:40:59.361Z,3.50
2023-01-22T12:43:36.812Z,3.40
2023-01-22T12:46:11.424Z,3.20
2023-01-22T12:49:06.972Z,3.20
2023-01-22T12:51:38.662Z,3.30
2023-01-22T12:54:32.461Z,3.30
2023-01-22T12:57:14.780Z,3.50
2023-01-22T12:59:47.074Z,3.50
2023-01-22T13:02:30.413Z,3.60
2023-01-22T13:05:10.545Z,3.60
2023-01-22T13:07:40.867Z,3.70
2023-01-22T13:10:29.527Z,3.70
2023-01-22T13:13:19.488Z,3.70
2023-01-22T13:15:54.725Z,3.60
2023-01-22T13:18:25.712Z,3.50
2023-01-22T13:21:03.062Z,3.40
2023-01-22T13:23:32.371Z,3.30
2023-01-22T13:26:00.156Z,3.20
2023-01-22T13:28:27.823Z,3.20
2023-01-22T13:31:01.103Z,3.20
2023-01-22T13:33:28.331Z,3.20
2023-01-22T13:35:55.603Z,3.20
2023-01-22T13:41:04.819Z,3.20
2023-01-22T13:43:33.747Z,3.10
2023-01-22T13:46:00.914Z,3.20
2023-01-22T13:48:27.703Z,3.10
2023-01-22T13:50:57.307Z,3.10
2023-01-22T13:53:30.835Z,3.10
2023-01-22T13:55:58.345Z,3.20
2023-01-22T13:58:47.263Z,3.30
2023-01-22T14:01:28.577Z,3.10
2023-01-22T14:04:01.325Z,3.00
2023-01-22T14:06:29.033Z,2.90
2023-01-22T14:08:58.014Z,2.80
2023-01-22T14:11:24.794Z,2.80
2023-01-22T14:13:53.193Z,6.90
2023-01-22T14:16:20.079Z,2.90
2023-01-22T14:18:47.935Z,2.90
2023-01-22T14:21:14.918Z,3.00
2023-01-22T14:23:42.667Z,3.10
2023-01-22T14:26:09.884Z,3.20
2023-01-22T14:28:37.363Z,3.20
2023-01-22T14:31:04.933Z,3.20
2023-01-22T14:33:33.363Z,3.20
2023-01-22T14:36:00.949Z,3.20
2023-01-22T14:38:28.614Z,3.10
2023-01-22T14:40:55.436Z,3.00
2023-01-22T14:43:22.823Z,3.00
2023-01-22T14:45:49.628Z,2.90
2023-01-22T14:48:18.508Z,2.90
2023-01-22T14:50:45.897Z,2.80
2023-01-22T14:58:10.158Z,2.80
2023-01-22T15:00:37.970Z,2.70
2023-01-22T15:03:04.803Z,2.70
2023-01-22T15:05:33.308Z,2.70
2023-01-22T15:08:01.533Z,2.70
2023-01-22T15:10:28.405Z,2.60
2023-01-22T15:17:54.566Z,2.70
2023-01-22T15:20:21.920Z,2.70
2023-01-22T15:22:49.745Z,2.50
2023-01-22T15:25:16.787Z,2.50
2023-01-22T15:30:12.963Z,2.40
2023-01-22T15:32:40.012Z,2.40
2023-01-22T15:35:06.928Z,2.30
2023-01-22T15:37:33.567Z,2.30
2023-01-22T15:40:00.436Z,2.20
2023-01-22T15:42:27.133Z,2.20
2023-01-22T15:44:53.823Z,2.20
2023-01-22T15:47:20.514Z,2.20
2023-01-22T15:49:47.217Z,2.20
2023-01-22T15:52:13.962Z,2.10
2023-01-22T15:54:40.644Z,2.00
2023-01-22T15:57:07.295Z,2.10
2023-01-22T15:59:34.051Z,2.10
2023-01-22T16:02:00.747Z,2.00
2023-01-22T16:06:55.640Z,2.00
2023-01-22T16:09:22.311Z,2.00
2023-01-22T16:11:49.764Z,1.90
2023-01-22T16:14:16.467Z,2.00
2023-01-22T16:16:43.223Z,1.90
2023-01-22T16:19:11.153Z,1.90
2023-01-22T16:24:08.387Z,1.90
2023-01-22T16:29:04.537Z,1.90
2023-01-22T16:34:11.070Z,1.90
2023-01-22T16:36:38.349Z,1.80
2023-01-22T16:41:35.115Z,1.80
2023-01-22T16:46:49.350Z,1.80
2023-01-22T16:54:20.566Z,1.70
2023-01-22T16:56:47.907Z,1.70
2023-01-22T16:59:15.134Z,1.70
2023-01-22T17:01:42.081Z,1.60
2023-01-22T17:04:08.979Z,1.60
2023-01-22T17:06:42.864Z,1.60
2023-01-22T17:09:14.543Z,1.60
2023-01-22T17:11:43.449Z,1.60
2023-01-22T17:14:10.724Z,1.60
2023-01-22T17:19:05.125Z,1.50
2023-01-22T17:21:31.859Z,1.50
2023-01-22T17:23:58.609Z,1.30
2023-01-22T17:26:25.654Z,1.50
2023-01-22T17:28:53.336Z,1.50
2023-01-22T17:31:22.175Z,1.50
2023-01-22T17:33:49.638Z,1.50
2023-01-22T17:38:46.020Z,1.40
2023-01-22T17:43:44.920Z,1.40
2023-01-22T17:48:40.716Z,1.40
2023-01-22T17:51:10.671Z,1.40
2023-01-22T17:53:40.038Z,1.40
2023-01-22T17:56:25.956Z,1.30
2023-01-22T17:58:57.010Z,1.30
2023-01-22T18:01:27.814Z,1.30
2023-01-22T18:03:57.616Z,1.20
2023-01-22T18:06:24.464Z,1.20
2023-01-22T18:08:51.208Z,1.10
2023-01-22T18:11:20.785Z,1.20
2023-01-22T18:13:48.159Z,1.00
2023-01-22T18:18:45.753Z,1.10
2023-01-22T18:21:16.535Z,1.10
2023-01-22T18:23:44.056Z,1.10
2023-01-22T18:26:12.012Z,1.10
2023-01-22T18:28:38.994Z,1.10
2023-01-22T18:31:09.396Z,1.10
2023-01-22T18:33:37.527Z,1.10
2023-01-22T18:36:10.524Z,1.30
2023-01-22T18:38:37.811Z,1.10
2023-01-22T18:41:06.975Z,1.10
2023-01-22T18:43:33.795Z,1.10
2023-01-22T18:46:05.178Z,1.10
2023-01-22T18:48:32.168Z,1.10
2023-01-22T18:50:58.985Z,1.10
2023-01-22T18:53:25.909Z,1.20
2023-01-22T18:58:29.810Z,1.10
2023-01-22T19:00:58.565Z,1.10
2023-01-22T19:05:54.666Z,1.20
2023-01-22T19:08:22.890Z,1.10
2023-01-22T19:10:49.673Z,1.00
2023-01-22T19:13:22.525Z,1.00
2023-01-22T19:15:49.226Z,1.10
2023-01-22T19:18:15.922Z,1.10
2023-01-22T19:20:43.683Z,1.10
2023-01-22T19:23:10.302Z,4.20
2023-01-22T19:25:37.056Z,1.10
2023-01-22T19:28:03.875Z,1.10
2023-01-22T19:30:30.525Z,0.80
2023-01-22T19:32:57.272Z,1.10
2023-01-22T19:35:24.109Z,1.00
2023-01-22T19:37:52.301Z,1.10
2023-01-22T19:40:20.759Z,1.10
2023-01-22T19:42:48.331Z,1.00
2023-01-22T19:45:15.172Z,1.00
2023-01-22T19:50:09.649Z,1.20
2023-01-22T20:02:26.508Z,1.30
2023-01-22T20:49:15.555Z,1.20
2023-01-22T21:31:18.197Z,1.20
2023-01-22T22:55:16.491Z,1.30
2023-01-22T23:05:07.649Z,1.30
2023-01-22T23:07:34.434Z,1.20
2023-01-22T23:10:01.128Z,1.10
2023-01-22T23:12:28.160Z,1.20
2023-01-22T23:17:21.996Z,1.20
2023-01-22T23:19:48.761Z,1.20
2023-01-22T23:22:15.653Z,1.10
2023-01-22T23:24:44.770Z,1.10
2023-01-22T23:27:11.409Z,1.10
2023-01-22T23:29:38.457Z,1.10
2023-01-22T23:32:05.375Z,1.00
2023-01-22T23:34:32.001Z,1.00
2023-01-22T23:36:58.678Z,1.00
2023-01-22T23:41:52.541Z,1.10
2023-01-22T23:44:19.315Z,1.00
2023-01-22T23:49:13.182Z,1.00
2023-01-22T23:54:09.357Z,1.00
2023-01-22T23:56:36.117Z,1.00
2023-01-22T23:59:03.141Z,1.00
